Time;durP1;ratioP1;P1;durP2;ratioP2;P2;SDS_P1;SDS_P2;PMS_P1;PMS_P2;Temp;Humidity;BMP_temperature;BMP_pressure;BME280_temperature;BME280_humidity;BME280_pressure;Samples;Min_cycle;Max_cycle;Signal;HPM_P1;HPM_P2
2022/11/09 00:00:45;;;;;;;;;;;;;;;20.86;58.58;100568.44;5071621;28;1656;-61
2022/11/09 00:03:11;;;;;;;;;;;;;;;20.84;58.80;100561.88;5061079;28;2015;-61
2022/11/09 00:05:37;;;;;;;;;;;;;;;20.81;59.06;100566.81;5067659;28;1638;-61
2022/11/09 00:08:05;;;;;;;;;;;;;;;20.78;58.67;100562.38;5076886;28;1913;-61
2022/11/09 00:10:31;;;;;;;;;;;;;;;20.80;58.97;100558.84;5073791;28;1878;-61
2022/11/09 00:12:58;;;;;;;;;;;;;;;20.80;58.80;100564.59;5074247;28;2099;-61
2022/11/09 00:15:24;;;;;;;;;;;;;;;20.79;58.92;100569.59;5072384;28;1908;-60
2022/11/09 00:17:50;;;;;;;;;;;;;;;20.80;59.03;100562.47;5076489;28;1733;-61
2022/11/09 00:20:17;;;;;;;;;;;;;;;20.79;58.87;100569.59;5074566;28;1707;-61
2022/11/09 00:22:46;;;;;;;;;;;;;;;20.80;58.84;100567.47;5067285;28;1865;-61
2022/11/09 00:25:12;;;;;;;;;;;;;;;20.80;58.98;100564.59;5063707;28;1635;-61
2022/11/09 00:27:38;;;;;;;;;;;;;;;20.79;59.05;100569.59;5068531;28;1909;-61
2022/11/09 00:30:05;;;;;;;;;;;;;;;20.79;58.95;100563.84;5066840;28;1691;-61
2022/11/09 00:32:31;;;;;;;;;;;;;;;20.78;58.88;100556.63;5067884;28;1917;-61
2022/11/09 00:34:57;;;;;;;;;;;;;;;20.78;59.03;100559.50;5066268;28;1794;-61
2022/11/09 00:37:25;;;;;;;;;;;;;;;20.77;59.03;100542.91;5067565;28;2552;-61
2022/11/09 00:39:52;;;;;;;;;;;;;;;20.75;58.97;100546.41;5068200;28;1663;-61
2022/11/09 00:42:18;;;;;;;;;;;;;;;20.77;59.12;100543.63;5071846;28;1622;-61
2022/11/09 00:44:44;;;;;;;;;;;;;;;20.77;58.80;100546.50;5073125;28;1864;-60
2022/11/09 00:47:11;;;;;;;;;;;;;;;20.77;58.81;100552.25;5070395;28;1807;-61
2022/11/09 00:49:37;;;;;;;;;;;;;;;20.77;58.94;100549.38;5074660;28;1859;-61
2022/11/09 00:52:03;;;;;;;;;;;;;;;20.77;58.98;100537.88;5071586;28;1744;-61
2022/11/09 00:54:30;;;;;;;;;;;;;;;20.81;58.70;100543.78;5077015;28;1865;-61
2022/11/09 00:56:56;;;;;;;;;;;;;;;20.83;58.53;100548.91;5079029;28;1667;-61
2022/11/09 00:59:23;;;;;;;;;;;;;;;20.82;58.58;100539.53;5058468;28;1734;-61
2022/11/09 01:01:49;;;;;;;;;;;;;;;20.81;58.85;100537.31;5068761;28;1727;-61
2022/11/09 01:04:16;;;;;;;;;;;;;;;20.81;58.83;100540.91;5064561;28;1663;-61
2022/11/09 01:06:43;;;;;;;;;;;;;;;20.82;58.57;100544.53;5064468;28;1592;-61
2022/11/09 01:09:09;;;;;;;;;;;;;;;20.81;58.60;100543.06;5069271;28;1910;-61
2022/11/09 01:11:35;;;;;;;;;;;;;;;20.82;58.67;100536.66;5065845;28;1611;-61
2022/11/09 01:14:02;;;;;;;;;;;;;;;20.80;58.65;100530.81;5066930;28;1696;-61
2022/11/09 01:16:28;;;;;;;;;;;;;;;20.80;58.83;100533.69;5063959;28;1639;-61
2022/11/09 01:18:55;;;;;;;;;;;;;;;20.81;58.56;100520.78;5065038;28;1746;-61
2022/11/09 01:21:22;;;;;;;;;;;;;;;20.80;58.62;100522.19;5067399;28;1810;-61
2022/11/09 01:23:49;;;;;;;;;;;;;;;20.80;58.71;100522.19;5067777;28;1775;-61
2022/11/09 01:26:16;;;;;;;;;;;;;;;20.79;58.71;100517.81;5063740;28;1773;-61
2022/11/09 01:28:42;;;;;;;;;;;;;;;20.80;58.65;100512.78;5073521;28;1910;-61
2022/11/09 01:31:10;;;;;;;;;;;;;;;20.81;58.72;100522.91;5077148;28;1746;-61
2022/11/09 01:33:37;;;;;;;;;;;;;;;20.80;58.52;100527.94;5082746;28;1695;-61
2022/11/09 01:36:03;;;;;;;;;;;;;;;20.80;58.71;100525.06;5067795;28;1784;-60
2022/11/09 01:38:30;;;;;;;;;;;;;;;20.80;58.76;100525.06;5067601;28;1771;-61
2022/11/09 01:40:56;;;;;;;;;;;;;;;20.79;58.66;100517.81;5070120;28;1897;-61
2022/11/09 01:43:23;;;;;;;;;;;;;;;20.79;58.81;100525.72;5073945;28;1783;-61
2022/11/09 01:45:49;;;;;;;;;;;;;;;20.77;58.87;100520.59;5067196;28;1607;-61
2022/11/09 01:48:21;;;;;;;;;;;;;;;20.77;58.88;100519.88;5071986;28;1973;-61
2022/11/09 01:50:49;;;;;;;;;;;;;;;20.77;58.93;100526.38;5048649;28;1852;-61
2022/11/09 01:53:16;;;;;;;;;;;;;;;20.78;58.60;100516.34;5069025;28;1809;-61
2022/11/09 01:55:45;;;;;;;;;;;;;;;20.76;58.62;100507.63;5060220;28;1655;-61
2022/11/09 01:58:14;;;;;;;;;;;;;;;20.78;58.53;100492.59;5051399;28;1801;-61
2022/11/09 02:00:41;;;;;;;;;;;;;;;20.77;58.70;100502.59;5067392;28;1766;-61
2022/11/09 02:03:09;;;;;;;;;;;;;;;20.77;58.62;100494.72;5062532;28;1796;-61
2022/11/09 02:05:35;;;;;;;;;;;;;;;20.78;58.85;100486.84;5046435;28;1883;-61
2022/11/09 02:08:01;;;;;;;;;;;;;;;20.76;58.81;100487.50;5048482;28;1910;-61
2022/11/09 02:10:43;;;;;;;;;;;;;;;20.76;58.58;100484.63;5062572;28;1972;-61
2022/11/09 02:13:09;;;;;;;;;;;;;;;20.76;58.83;100487.50;5066424;28;1723;-61
2022/11/09 02:15:36;;;;;;;;;;;;;;;20.74;58.63;100478.78;5049524;28;1792;-61
2022/11/09 02:18:10;;;;;;;;;;;;;;;20.77;58.64;100486.06;5063156;28;1801;-61
2022/11/09 02:20:49;;;;;;;;;;;;;;;20.75;58.74;100486.00;5072900;28;1715;-61
2022/11/09 02:23:16;;;;;;;;;;;;;;;20.76;58.75;100493.25;5064488;28;1731;-61
2022/11/09 02:25:44;;;;;;;;;;;;;;;20.75;58.53;100488.88;5070102;28;1723;-61
2022/11/09 02:28:10;;;;;;;;;;;;;;;20.75;58.69;100485.25;5067463;28;1967;-61
2022/11/09 02:30:37;;;;;;;;;;;;;;;20.75;58.85;100479.50;5068223;28;2196;-61
2022/11/09 02:33:03;;;;;;;;;;;;;;;20.75;58.62;100465.84;5049357;28;1702;-61
2022/11/09 02:35:30;;;;;;;;;;;;;;;20.75;58.63;100471.59;5072980;28;1690;-61
2022/11/09 02:37:57;;;;;;;;;;;;;;;20.75;58.78;100470.88;5072211;28;1715;-61
2022/11/09 02:40:25;;;;;;;;;;;;;;;20.75;58.61;100471.59;5070940;28;1616;-61
2022/11/09 02:42:52;;;;;;;;;;;;;;;20.74;58.61;100475.16;5070262;28;1736;-61
2022/11/09 02:45:19;;;;;;;;;;;;;;;20.74;58.81;100475.91;5077565;28;1825;-61
2022/11/09 02:47:46;;;;;;;;;;;;;;;20.74;58.76;100469.41;5079065;28;1918;-61
2022/11/09 02:50:12;;;;;;;;;;;;;;;20.73;58.55;100474.44;5080861;28;1650;-61
2022/11/09 02:52:38;;;;;;;;;;;;;;;20.73;58.82;100480.19;5074576;28;1620;-61
2022/11/09 02:55:05;;;;;;;;;;;;;;;20.73;58.56;100468.69;5068841;28;1658;-60
2022/11/09 02:57:31;;;;;;;;;;;;;;;20.71;58.65;100471.47;5066515;28;1664;-61
2022/11/09 02:59:59;;;;;;;;;;;;;;;20.72;58.64;100470.06;5054881;28;1627;-61
2022/11/09 03:02:25;;;;;;;;;;;;;;;20.73;58.61;100473.66;5066949;28;1764;-61
2022/11/09 03:04:52;;;;;;;;;;;;;;;20.71;58.56;100471.47;5066601;28;1608;-61
2022/11/09 03:07:19;;;;;;;;;;;;;;;20.71;58.58;100466.44;5062919;28;1717;-61
2022/11/09 03:09:45;;;;;;;;;;;;;;;20.69;58.80;100445.50;5067305;28;2046;-60
2022/11/09 03:12:30;;;;;;;;;;;;;;;20.70;58.86;100452.72;5060490;28;1744;-61
2022/11/09 03:15:09;;;;;;;;;;;;;;;20.69;58.68;100445.50;5065102;28;1624;-61
2022/11/09 03:17:40;;;;;;;;;;;;;;;20.68;58.51;100444.75;5065910;28;1952;-61
2022/11/09 03:20:07;;;;;;;;;;;;;;;20.68;58.73;100441.13;5066711;28;1698;-61
2022/11/09 03:22:34;;;;;;;;;;;;;;;20.71;58.51;100451.34;5063992;28;1914;-61
2022/11/09 03:25:01;;;;;;;;;;;;;;;20.57;59.12;100456.53;5065936;28;1707;-61
2022/11/09 03:27:28;;;;;;;;;;;;;;;20.56;59.06;100460.78;5066559;28;2053;-61
2022/11/09 03:29:54;;;;;;;;;;;;;;;20.56;59.04;100478.03;5063159;28;1938;-62
2022/11/09 03:32:21;;;;;;;;;;;;;;;20.55;58.93;100483.06;5064527;28;1664;-61
2022/11/09 03:34:48;;;;;;;;;;;;;;;20.51;59.20;100486.50;5062877;28;1770;-61
2022/11/09 03:37:14;;;;;;;;;;;;;;;20.54;59.11;100486.59;5064912;28;2063;-61
2022/11/09 03:39:41;;;;;;;;;;;;;;;20.52;59.23;100481.47;5062383;28;1674;-61
2022/11/09 03:42:07;;;;;;;;;;;;;;;20.67;58.69;100491.44;5058755;28;1765;-61
2022/11/09 03:44:35;;;;;;;;;;;;;;;20.67;58.87;100494.31;5064553;28;1694;-60
2022/11/09 03:47:01;;;;;;;;;;;;;;;20.68;58.45;100479.28;5063553;28;1785;-61
2022/11/09 03:49:28;;;;;;;;;;;;;;;20.70;58.52;100493.72;5057917;28;1911;-61
2022/11/09 03:51:54;;;;;;;;;;;;;;;20.73;58.39;100500.31;5065059;28;1757;-61
2022/11/09 03:54:20;;;;;;;;;;;;;;;20.75;58.30;100494.63;5065631;28;1749;-61
2022/11/09 03:56:47;;;;;;;;;;;;;;;20.76;58.49;100495.38;5068169;28;1725;-61
2022/11/09 03:59:13;;;;;;;;;;;;;;;20.76;58.34;100490.38;5072622;28;1722;-61
2022/11/09 04:01:39;;;;;;;;;;;;;;;20.78;58.45;100486.84;5065667;28;1810;-61
2022/11/09 04:04:06;;;;;;;;;;;;;;;20.79;58.38;100488.31;5066069;28;1655;-61
2022/11/09 04:06:32;;;;;;;;;;;;;;;20.78;58.41;100484.69;5065227;28;1691;-61
2022/11/09 04:08:58;;;;;;;;;;;;;;;20.79;58.20;100482.56;5064422;28;1902;-61
2022/11/09 04:11:25;;;;;;;;;;;;;;;20.79;58.52;100473.91;5064827;28;1651;-61
2022/11/09 04:13:51;;;;;;;;;;;;;;;20.80;58.37;100487.66;5064073;28;1652;-61
2022/11/09 04:16:17;;;;;;;;;;;;;;;20.80;58.15;100484.78;5062775;28;1755;-61
2022/11/09 04:18:44;;;;;;;;;;;;;;;20.82;58.22;100487.72;5063681;28;1924;-61
2022/11/09 04:21:10;;;;;;;;;;;;;;;20.82;58.04;100475.47;5058703;28;1755;-61
2022/11/09 04:23:36;;;;;;;;;;;;;;;20.82;58.32;100467.59;5057253;28;1885;-61
2022/11/09 04:26:03;;;;;;;;;;;;;;;20.80;58.20;100463.88;5074224;28;1908;-61
2022/11/09 04:28:29;;;;;;;;;;;;;;;20.81;58.18;100480.47;5080049;28;1965;-61
2022/11/09 04:30:58;;;;;;;;;;;;;;;20.81;58.16;100477.59;5073095;28;1862;-61
2022/11/09 04:33:24;;;;;;;;;;;;;;;20.81;58.42;100474.72;5072239;28;1782;-62
2022/11/09 04:35:51;;;;;;;;;;;;;;;20.81;58.36;100474.00;5075292;28;1853;-61
2022/11/09 04:38:17;;;;;;;;;;;;;;;20.81;58.43;100480.47;5072059;28;1991;-61
2022/11/09 04:40:43;;;;;;;;;;;;;;;20.81;58.41;100486.25;5061957;28;1660;-61
2022/11/09 04:43:10;;;;;;;;;;;;;;;20.80;58.27;100479.03;5073494;28;1742;-61
2022/11/09 04:45:37;;;;;;;;;;;;;;;20.81;58.33;100497.75;5081143;28;1753;-61
2022/11/09 04:48:04;;;;;;;;;;;;;;;20.80;58.25;100484.78;5076290;28;1715;-61
2022/11/09 04:50:30;;;;;;;;;;;;;;;20.78;58.54;100475.31;5077683;28;1914;-61
2022/11/09 04:53:04;;;;;;;;;;;;;;;20.80;58.27;100473.25;5076206;28;1673;-61
2022/11/09 04:55:33;;;;;;;;;;;;;;;20.80;58.29;100489.78;5071644;28;1790;-61
2022/11/09 04:57:59;;;;;;;;;;;;;;;20.79;58.52;100494.78;5074360;28;1731;-61
2022/11/09 05:00:26;;;;;;;;;;;;;;;20.80;58.30;100501.28;5069913;28;1842;-61
2022/11/09 05:02:52;;;;;;;;;;;;;;;20.78;58.48;100504.09;5073047;28;1810;-61
2022/11/09 05:05:18;;;;;;;;;;;;;;;20.78;58.48;100501.97;5071969;28;1667;-61
2022/11/09 05:07:45;;;;;;;;;;;;;;;20.78;58.21;100496.19;5072192;28;1747;-61
2022/11/09 05:10:11;;;;;;;;;;;;;;;20.78;58.46;100490.44;5073673;28;1973;-61
2022/11/09 05:12:37;;;;;;;;;;;;;;;20.79;58.53;100499.81;5070430;28;1611;-61
2022/11/09 05:15:10;;;;;;;;;;;;;;;20.77;58.47;100485.34;5071746;28;2087;-61
2022/11/09 05:17:36;;;;;;;;;;;;;;;20.78;58.21;100499.09;5071291;28;1695;-61
2022/11/09 05:20:02;;;;;;;;;;;;;;;20.76;58.54;100496.13;5071465;28;1874;-60
2022/11/09 05:25:14;;;;;;;;;;;;;;;20.78;58.32;100495.47;5067050;28;1699;-61
2022/11/09 05:27:40;;;;;;;;;;;;;;;20.75;58.63;100511.91;5069960;28;1599;-61
2022/11/09 05:30:06;;;;;;;;;;;;;;;20.77;58.56;100514.84;5071846;28;1910;-61
2022/11/09 05:32:34;;;;;;;;;;;;;;;20.77;58.38;100517.72;5070877;28;1934;-61
2022/11/09 05:35:01;;;;;;;;;;;;;;;20.79;58.40;100505.56;5068692;28;1687;-61
2022/11/09 05:37:27;;;;;;;;;;;;;;;20.77;58.48;100502.59;5069506;28;1998;-61
2022/11/09 05:39:53;;;;;;;;;;;;;;;20.78;58.46;100501.97;5065704;28;1635;-61
2022/11/09 05:42:22;;;;;;;;;;;;;;;20.80;58.19;100484.00;5071117;28;1783;-61
2022/11/09 05:44:48;;;;;;;;;;;;;;;20.79;58.22;100506.31;5068774;28;1825;-61
2022/11/09 05:47:15;;;;;;;;;;;;;;;20.77;58.48;100502.59;5069278;28;1584;-61
2022/11/09 05:49:41;;;;;;;;;;;;;;;20.79;58.36;100505.56;5071213;28;1925;-61
2022/11/09 05:52:07;;;;;;;;;;;;;;;20.80;58.45;100504.91;5069174;28;1580;-61
2022/11/09 05:54:34;;;;;;;;;;;;;;;20.79;58.26;100491.91;5068290;28;1799;-61
2022/11/09 05:57:01;;;;;;;;;;;;;;;20.81;58.46;100508.53;5069757;28;1635;-61
2022/11/09 05:59:27;;;;;;;;;;;;;;;20.85;58.34;100497.19;5067122;28;1563;-61
2022/11/09 06:01:53;;;;;;;;;;;;;;;20.85;58.30;100495.03;5069964;28;1854;-61
2022/11/09 06:04:20;;;;;;;;;;;;;;;20.84;58.08;100507.94;5068447;28;1615;-61
2022/11/09 06:06:46;;;;;;;;;;;;;;;20.83;58.36;100509.34;5069062;28;1849;-61
2022/11/09 06:09:12;;;;;;;;;;;;;;;20.85;58.28;100518.06;5071154;28;1993;-61
2022/11/09 06:11:39;;;;;;;;;;;;;;;20.84;58.17;100525.19;5070614;28;1683;-61
2022/11/09 06:14:05;;;;;;;;;;;;;;;20.84;58.36;100533.09;5071531;28;1595;-62
2022/11/09 06:16:31;;;;;;;;;;;;;;;20.84;58.18;100519.44;5068222;28;1756;-61
2022/11/09 06:18:59;;;;;;;;;;;;;;;20.85;58.23;100528.84;5071281;28;1817;-61
2022/11/09 06:21:25;;;;;;;;;;;;;;;20.84;58.25;100528.06;5064549;28;1818;-61
2022/11/09 06:23:52;;;;;;;;;;;;;;;20.85;58.26;100531.72;5068427;28;1575;-61
2022/11/09 06:26:18;;;;;;;;;;;;;;;20.87;58.23;100531.78;5069689;28;1556;-61
2022/11/09 06:28:44;;;;;;;;;;;;;;;20.85;58.29;100535.31;5069193;28;1810;-61
2022/11/09 06:31:11;;;;;;;;;;;;;;;20.84;58.35;100530.22;5068948;28;1913;-61
2022/11/09 06:33:38;;;;;;;;;;;;;;;20.80;58.52;100536.56;5069515;28;1587;-61
2022/11/09 06:36:04;;;;;;;;;;;;;;;20.82;58.54;100533.78;5071437;28;1720;-61
2022/11/09 06:38:30;;;;;;;;;;;;;;;20.81;59.30;100540.91;5063019;28;1536;-60
2022/11/09 06:40:57;;;;;;;;;;;;;;;20.83;59.33;100546.03;5062257;28;2749;-60
2022/11/09 06:43:23;;;;;;;;;;;;;;;20.86;58.70;100542.56;5067300;28;2427;-59
2022/11/09 06:45:50;;;;;;;;;;;;;;;20.86;59.16;100548.31;5068001;28;2206;-58
2022/11/09 06:51:45;;;;;;;;;;;;;;;20.78;59.72;100548.00;5073397;28;1624;-60
2022/11/09 06:54:11;;;;;;;;;;;;;;;20.79;59.65;100549.47;5071599;28;1587;-60
2022/11/09 06:56:38;;;;;;;;;;;;;;;20.80;59.64;100559.59;5071184;28;1640;-60
2022/11/09 06:59:04;;;;;;;;;;;;;;;20.80;59.88;100558.84;5071578;28;1758;-59
2022/11/09 07:01:30;;;;;;;;;;;;;;;20.81;59.74;100554.56;5070176;28;1628;-60
2022/11/09 07:03:57;;;;;;;;;;;;;;;20.78;59.91;100542.25;5069716;28;1814;-60
2022/11/09 07:06:23;;;;;;;;;;;;;;;20.78;59.88;100545.13;5071864;28;1734;-60
2022/11/09 07:08:53;;;;;;;;;;;;;;;20.79;60.12;100543.72;5068535;28;1675;-60
2022/11/09 07:11:19;;;;;;;;;;;;;;;20.78;59.72;100539.38;5072271;28;1914;-60
2022/11/09 07:13:46;;;;;;;;;;;;;;;20.80;59.91;100530.81;5066722;28;1578;-60
2022/11/09 07:16:16;;;;;;;;;;;;;;;20.81;59.80;100526.53;5071597;28;1643;-59
2022/11/09 07:18:43;;;;;;;;;;;;;;;20.83;59.57;100511.50;5070409;28;1834;-60
2022/11/09 07:21:10;;;;;;;;;;;;;;;20.82;59.74;100502.13;5071776;28;1540;-60
2022/11/09 07:23:39;;;;;;;;;;;;;;;20.83;59.49;100494.94;5071097;28;1623;-60
2022/11/09 07:26:06;;;;;;;;;;;;;;;20.84;59.52;100507.19;5075602;28;1587;-60
2022/11/09 07:28:32;;;;;;;;;;;;;;;20.85;59.44;100509.44;5071542;28;1742;-60
2022/11/09 07:30:58;;;;;;;;;;;;;;;20.86;59.79;100548.31;5073568;28;1909;-59
2022/11/09 07:33:25;;;;;;;;;;;;;;;20.86;59.39;100545.44;5072794;28;1628;-60
2022/11/09 07:35:52;;;;;;;;;;;;;;;20.89;59.53;100554.88;5073441;28;1833;-60
2022/11/09 07:38:18;;;;;;;;;;;;;;;20.88;59.42;100571.41;5071394;28;1631;-60
2022/11/09 07:40:45;;;;;;;;;;;;;;;20.88;59.32;100554.16;5070764;28;1735;-59
2022/11/09 07:43:11;;;;;;;;;;;;;;;20.89;59.44;100552.75;5073928;28;1524;-60
2022/11/09 07:45:38;;;;;;;;;;;;;;;20.90;59.21;100551.34;5055397;28;1870;-60
2022/11/09 07:48:05;;;;;;;;;;;;;;;20.85;59.62;100557.63;5074762;28;1723;-59
2022/11/09 07:50:32;;;;;;;;;;;;;;;20.85;59.55;100558.34;5073209;28;1958;-60
2022/11/09 07:52:58;;;;;;;;;;;;;;;20.85;59.56;100549.72;5074132;28;1677;-59
2022/11/09 07:55:25;;;;;;;;;;;;;;;20.84;59.36;100551.09;5076160;28;1618;-60
2022/11/09 07:58:01;;;;;;;;;;;;;;;20.85;59.45;100555.47;5076849;28;1770;-59
2022/11/09 08:00:28;;;;;;;;;;;;;;;20.53;58.49;100548.41;5074707;28;3062;-59
2022/11/09 08:02:54;;;;;;;;;;;;;;;20.32;56.49;100556.19;5081024;28;2815;-59
2022/11/09 08:05:20;;;;;;;;;;;;;;;20.20;55.52;100558.53;5077183;28;3004;-58
2022/11/09 08:07:47;;;;;;;;;;;;;;;20.01;55.23;100559.91;5077661;28;2342;-59
2022/11/09 08:10:14;;;;;;;;;;;;;;;20.00;54.75;100553.41;5079604;28;1981;-59
2022/11/09 08:12:40;;;;;;;;;;;;;;;20.06;54.29;100562.28;5079296;28;2430;-59
2022/11/09 08:15:06;;;;;;;;;;;;;;;19.98;54.14;100567.69;5078030;28;1622;-59
2022/11/09 08:17:33;;;;;;;;;;;;;;;19.91;54.05;100563.06;5077461;28;1718;-58
2022/11/09 08:19:59;;;;;;;;;;;;;;;19.85;53.93;100560.66;5074973;28;3051;-59
2022/11/09 08:22:25;;;;;;;;;;;;;;;19.81;53.91;100563.38;5079815;28;1841;-59
2022/11/09 08:24:52;;;;;;;;;;;;;;;19.83;53.67;100566.31;5077648;28;2826;-59
2022/11/09 08:27:18;;;;;;;;;;;;;;;19.78;53.72;100561.06;5080559;28;2464;-58
2022/11/09 08:29:44;;;;;;;;;;;;;;;19.70;54.02;100546.31;5079520;28;1982;-59
2022/11/09 08:32:11;;;;;;;;;;;;;;;19.75;53.82;100548.75;5080080;28;2447;-59
2022/11/09 08:34:37;;;;;;;;;;;;;;;19.70;53.75;100555.72;5081268;28;1670;-59
2022/11/09 08:37:04;;;;;;;;;;;;;;;19.64;53.84;100564.75;5079015;28;1607;-59
2022/11/09 08:39:30;;;;;;;;;;;;;;;19.63;53.78;100569.03;5080864;28;1528;-59
2022/11/09 08:41:57;;;;;;;;;;;;;;;19.56;54.00;100570.16;5079420;28;1644;-59
2022/11/09 08:44:23;;;;;;;;;;;;;;;19.58;53.77;100570.22;5085522;28;1532;-59
2022/11/09 08:46:49;;;;;;;;;;;;;;;19.59;53.93;100580.31;5080172;28;1791;-58
2022/11/09 08:49:16;;;;;;;;;;;;;;;19.51;54.05;100585.69;5085249;28;1580;-59
2022/11/09 08:51:43;;;;;;;;;;;;;;;19.49;54.20;100576.97;5083808;28;1958;-58
2022/11/09 08:54:10;;;;;;;;;;;;;;;19.50;54.07;100581.34;5076039;28;1583;-59
2022/11/09 08:56:36;;;;;;;;;;;;;;;19.40;54.43;100587.38;5074722;28;1649;-59
2022/11/09 08:59:02;;;;;;;;;;;;;;;19.34;54.59;100572.75;5078943;28;1564;-59
2022/11/09 09:01:29;;;;;;;;;;;;;;;19.56;54.14;100561.53;5067661;28;2879;-59
2022/11/09 09:03:55;;;;;;;;;;;;;;;19.83;53.59;100580.69;5066456;28;2465;-61
2022/11/09 09:06:22;;;;;;;;;;;;;;;19.93;53.50;100586.16;5068315;28;1564;-59
2022/11/09 09:08:55;;;;;;;;;;;;;;;20.07;53.36;100581.03;5071429;28;2118;-59
2022/11/09 09:11:22;;;;;;;;;;;;;;;20.14;53.66;100587.03;5067435;28;1969;-58
2022/11/09 09:13:48;;;;;;;;;;;;;;;20.18;53.67;100585.09;5068105;28;1690;-59
2022/11/09 09:16:15;;;;;;;;;;;;;;;20.20;53.92;100604.53;5067996;28;1551;-59
2022/11/09 09:18:41;;;;;;;;;;;;;;;20.22;54.22;100604.63;5070226;28;1552;-59
2022/11/09 09:21:08;;;;;;;;;;;;;;;20.22;54.22;100599.59;5064709;28;1951;-60
2022/11/09 09:23:34;;;;;;;;;;;;;;;20.27;54.36;100604.16;5069856;28;2433;-59
2022/11/09 09:26:00;;;;;;;;;;;;;;;20.28;54.56;100596.25;5061182;28;3025;-59
2022/11/09 09:28:27;;;;;;;;;;;;;;;20.29;54.60;100607.13;5068068;28;1864;-59
2022/11/09 09:30:55;;;;;;;;;;;;;;;20.31;54.83;100615.06;5067994;28;2421;-59
2022/11/09 09:33:22;;;;;;;;;;;;;;;20.33;55.09;100609.41;5067924;28;1791;-59
2022/11/09 09:35:50;;;;;;;;;;;;;;;20.35;55.16;100609.50;5065330;28;1877;-59
2022/11/09 09:38:17;;;;;;;;;;;;;;;20.36;55.36;100616.72;5068186;28;1590;-59
2022/11/09 09:40:55;;;;;;;;;;;;;;;20.39;55.34;100618.31;5064538;28;1552;-59
2022/11/09 09:43:41;;;;;;;;;;;;;;;20.42;55.53;100617.00;5067366;28;2454;-59
2022/11/09 09:46:12;;;;;;;;;;;;;;;20.44;55.56;100617.06;5064974;28;1643;-60
2022/11/09 09:48:39;;;;;;;;;;;;;;;20.45;55.64;100618.53;5066549;28;1849;-60
2022/11/09 09:51:11;;;;;;;;;;;;;;;20.47;55.62;100633.00;5066213;28;1914;-59
2022/11/09 09:53:42;;;;;;;;;;;;;;;20.48;55.88;100631.63;5067292;28;1671;-59
2022/11/09 09:56:18;;;;;;;;;;;;;;;20.49;55.88;100643.88;5065750;28;1572;-59
2022/11/09 09:58:46;;;;;;;;;;;;;;;20.49;55.84;100635.97;5084080;28;1526;-59
2022/11/09 10:01:18;;;;;;;;;;;;;;;20.50;56.08;100643.22;5065574;28;1590;-59
2022/11/09 10:03:45;;;;;;;;;;;;;;;20.51;55.98;100638.94;5066803;28;1588;-59
2022/11/09 10:06:11;;;;;;;;;;;;;;;20.53;56.09;100640.44;5069115;28;2432;-59
2022/11/09 10:08:44;;;;;;;;;;;;;;;20.54;55.87;100636.16;5073344;28;2554;-59
2022/11/09 10:11:13;;;;;;;;;;;;;;;20.56;56.13;100644.88;5077573;28;2716;-59
2022/11/09 10:13:42;;;;;;;;;;;;;;;20.54;56.22;100639.75;5074383;28;2370;-59
2022/11/09 10:16:32;;;;;;;;;;;;;;;20.55;56.03;100637.63;5072421;28;2526;-59
2022/11/09 10:19:17;;;;;;;;;;;;;;;20.56;56.26;100634.13;5077850;28;1781;-59
2022/11/09 10:21:53;;;;;;;;;;;;;;;20.56;56.29;100633.38;5076054;28;2442;-59
2022/11/09 10:24:26;;;;;;;;;;;;;;;20.56;56.29;100628.38;5070434;28;1595;-59
2022/11/09 10:26:56;;;;;;;;;;;;;;;20.59;56.31;100620.56;5073227;28;2062;-60
2022/11/09 10:29:24;;;;;;;;;;;;;;;20.57;56.35;100624.13;5065215;28;1606;-60
2022/11/09 10:31:54;;;;;;;;;;;;;;;20.57;56.29;100623.34;5064924;28;1987;-59
2022/11/09 10:34:40;;;;;;;;;;;;;;;20.60;56.40;100616.31;5064360;28;1723;-59
2022/11/09 10:37:14;;;;;;;;;;;;;;;20.60;56.25;100610.56;5064022;28;1711;-59
2022/11/09 10:39:48;;;;;;;;;;;;;;;20.60;56.41;100622.06;5064320;28;1675;-59
2022/11/09 10:42:33;;;;;;;;;;;;;;;20.59;56.40;100614.81;5062823;28;1555;-59
2022/11/09 10:45:27;;;;;;;;;;;;;;;20.60;56.33;100607.69;5078894;28;1648;-59
2022/11/09 10:48:12;;;;;;;;;;;;;;;20.60;56.41;100599.78;5069270;28;1563;-59
2022/11/09 10:50:57;;;;;;;;;;;;;;;20.62;56.63;100602.00;5073235;28;2005;-59
2022/11/09 10:53:42;;;;;;;;;;;;;;;20.62;56.38;100597.00;5073016;28;1932;-59
2022/11/09 10:56:27;;;;;;;;;;;;;;;20.62;56.40;100590.50;5077409;28;1722;-60
2022/11/09 10:59:38;;;;;;;;;;;;;;;20.63;56.58;100591.97;5072968;28;1683;-59
2022/11/09 11:02:23;;;;;;;;;;;;;;;20.64;56.61;100599.22;5071872;28;1655;-60
2022/11/09 11:05:08;;;;;;;;;;;;;;;20.64;56.72;100585.56;5075132;28;1639;-60
2022/11/09 11:07:53;;;;;;;;;;;;;;;20.63;56.79;100595.59;5072829;28;1712;-60
2022/11/09 11:10:37;;;;;;;;;;;;;;;20.62;56.70;100590.50;5061857;28;1902;-60
2022/11/09 11:13:23;;;;;;;;;;;;;;;20.63;56.78;100586.22;5067204;28;1571;-60
2022/11/09 11:16:15;;;;;;;;;;;;;;;20.62;56.64;100579.00;5073307;28;1559;-60
2022/11/09 11:19:00;;;;;;;;;;;;;;;20.61;56.73;100577.50;5073050;28;1695;-60
2022/11/09 11:21:45;;;;;;;;;;;;;;;20.62;57.06;100581.88;5073351;28;1628;-60
2022/11/09 11:24:34;;;;;;;;;;;;;;;20.63;56.88;100580.47;5072711;28;1574;-60
2022/11/09 11:27:24;;;;;;;;;;;;;;;20.59;56.97;100583.19;5070719;28;1548;-60
2022/11/09 11:30:11;;;;;;;;;;;;;;;20.63;56.82;100581.19;5075492;28;1979;-60
2022/11/09 11:32:56;;;;;;;;;;;;;;;20.64;57.03;100576.22;5073382;28;1945;-60
2022/11/09 11:35:42;;;;;;;;;;;;;;;20.65;56.96;100571.91;5065793;28;1631;-60
2022/11/09 11:38:36;;;;;;;;;;;;;;;20.65;56.90;100574.81;5064178;28;1728;-60
2022/11/09 11:41:34;;;;;;;;;;;;;;;20.67;56.92;100572.00;5064220;28;1702;-60
2022/11/09 11:44:23;;;;;;;;;;;;;;;20.67;56.77;100569.13;5060478;28;1659;-60
2022/11/09 11:47:08;;;;;;;;;;;;;;;20.66;56.97;100548.25;5054910;28;1648;-60
2022/11/09 11:49:59;;;;;;;;;;;;;;;20.68;56.78;100559.09;5052436;28;1678;-61
2022/11/09 11:53:01;;;;;;;;;;;;;;;20.70;56.90;100553.41;5053373;28;1754;-60
2022/11/09 11:55:53;;;;;;;;;;;;;;;20.72;56.75;100547.75;5054480;28;1523;-60
2022/11/09 11:58:38;;;;;;;;;;;;;;;20.73;56.68;100548.47;5054577;28;1735;-60
2022/11/09 12:01:27;;;;;;;;;;;;;;;20.71;56.84;100554.91;5051864;28;1674;-60
2022/11/09 12:04:30;;;;;;;;;;;;;;;20.72;56.80;100547.75;5055724;28;1600;-60
2022/11/09 12:07:25;;;;;;;;;;;;;;;20.75;56.96;100546.41;5054061;28;1571;-60
2022/11/09 12:10:30;;;;;;;;;;;;;;;20.74;56.89;100556.47;5049980;28;2556;-60
2022/11/09 12:13:40;;;;;;;;;;;;;;;20.74;56.77;100553.59;5052136;28;1528;-60
2022/11/09 12:16:38;;;;;;;;;;;;;;;20.75;56.91;100552.19;5055882;28;1603;-60
2022/11/09 12:19:30;;;;;;;;;;;;;;;20.74;57.00;100549.97;5053315;28;1604;-60
2022/11/09 12:22:19;;;;;;;;;;;;;;;20.76;56.68;100550.78;5052029;28;1726;-60
2022/11/09 12:25:10;;;;;;;;;;;;;;;20.77;56.74;100560.88;5048772;28;1651;-60
2022/11/09 12:28:01;;;;;;;;;;;;;;;20.76;56.81;100545.03;5045927;28;1635;-60
2022/11/09 12:30:49;;;;;;;;;;;;;;;20.78;56.69;100550.88;5050773;28;1910;-60
2022/11/09 12:33:45;;;;;;;;;;;;;;;20.78;56.86;100556.63;5057313;28;1668;-60
2022/11/09 12:36:38;;;;;;;;;;;;;;;20.77;56.72;100542.91;5053354;28;1658;-60
2022/11/09 12:39:32;;;;;;;;;;;;;;;20.76;56.87;100556.56;5052321;28;1548;-60
2022/11/09 12:42:17;;;;;;;;;;;;;;;20.77;57.01;100549.38;5056632;28;1635;-60
2022/11/09 12:45:03;;;;;;;;;;;;;;;20.77;56.74;100555.13;5054607;28;1714;-60
2022/11/09 12:47:48;;;;;;;;;;;;;;;20.77;56.77;100548.66;5055646;28;1595;-60
2022/11/09 12:50:33;;;;;;;;;;;;;;;20.78;56.86;100539.38;5068636;28;1969;-60
2022/11/09 12:53:18;;;;;;;;;;;;;;;20.78;57.00;100550.16;5062592;28;1602;-59
2022/11/09 12:56:08;;;;;;;;;;;;;;;20.77;57.05;100546.50;5064119;28;1681;-60
2022/11/09 12:58:53;;;;;;;;;;;;;;;20.78;57.02;100555.91;5063102;28;1604;-60
2022/11/09 13:01:38;;;;;;;;;;;;;;;20.77;57.01;100555.13;5057919;28;1682;-60
2022/11/09 13:04:23;;;;;;;;;;;;;;;20.76;57.05;100553.66;5051797;28;1644;-60
2022/11/09 13:07:08;;;;;;;;;;;;;;;20.77;57.07;100557.28;5055877;28;1623;-60
2022/11/09 13:09:53;;;;;;;;;;;;;;;20.76;56.90;100559.44;5053021;28;2314;-60
2022/11/09 13:12:39;;;;;;;;;;;;;;;20.77;57.12;100549.38;5057888;28;1910;-60
2022/11/09 13:15:24;;;;;;;;;;;;;;;20.78;56.91;100550.16;5064496;28;1655;-59